SAS448 EKCH-ESGG
Flight info
| Callsign | SAS448 |
|---|---|
| Flight time | 0h 30m |
| Altitude | 24000 |
| Route | VEDA4A VEDAR L997 RISMA RISM3T |
| Aircraft | A320/M-SDE3FGHIRWY/LB1 |
Departure
| Time | 2026-04-26 19:30 |
|---|---|
| Airport | Copenhagen Kastrup Airport (EKCH) |
Arrival
| Time | 2026-04-26 20:00 |
|---|---|
| Airport | Göteborg Landvetter Airport (ESGG) |
| Time | Latitude | Longitude | Altitude | Speed | Heading |
|---|---|---|---|---|---|
| 2026-04-26 18:58 | 55.62900 | 12.63872 | 26 ft | 0 kts | 13° |
| 2026-04-26 19:14 | 55.62895 | 12.63870 | 24 ft | 4 kts | 12° |
| 2026-04-26 19:15 | 55.62856 | 12.63855 | 27 ft | 4 kts | 28° |
| 2026-04-26 19:15 | 55.62847 | 12.63828 | 25 ft | 4 kts | 102° |
| 2026-04-26 19:15 | 55.62853 | 12.63784 | 25 ft | 4 kts | 104° |
| 2026-04-26 19:15 | 55.62859 | 12.63743 | 25 ft | 1 kts | 104° |
| 2026-04-26 19:16 | 55.62863 | 12.63702 | 25 ft | 4 kts | 90° |
| 2026-04-26 19:16 | 55.62863 | 12.63673 | 24 ft | 0 kts | 86° |
| 2026-04-26 19:20 | 55.62863 | 12.63685 | 26 ft | 3 kts | 87° |
| 2026-04-26 19:20 | 55.62860 | 12.63725 | 25 ft | 7 kts | 102° |
| 2026-04-26 19:20 | 55.62851 | 12.63793 | 26 ft | 7 kts | 103° |
| 2026-04-26 19:20 | 55.62844 | 12.63844 | 26 ft | 8 kts | 104° |
| 2026-04-26 19:21 | 55.62841 | 12.63866 | 25 ft | 0 kts | 104° |
| 2026-04-26 19:21 | 55.62838 | 12.63890 | 25 ft | 6 kts | 104° |
| 2026-04-26 19:22 | 55.62810 | 12.63966 | 25 ft | 9 kts | 157° |
| 2026-04-26 19:22 | 55.62747 | 12.63922 | 24 ft | 12 kts | 213° |
| 2026-04-26 19:22 | 55.62736 | 12.63909 | 24 ft | 12 kts | 213° |
| 2026-04-26 19:22 | 55.62669 | 12.63847 | 24 ft | 9 kts | 178° |
| 2026-04-26 19:23 | 55.62621 | 12.63945 | 25 ft | 13 kts | 122° |
| 2026-04-26 19:23 | 55.62569 | 12.64084 | 25 ft | 12 kts | 124° |
| 2026-04-26 19:23 | 55.62526 | 12.64199 | 24 ft | 10 kts | 123° |
| 2026-04-26 19:23 | 55.62516 | 12.64227 | 24 ft | 0 kts | 122° |
| 2026-04-26 19:24 | 55.62516 | 12.64228 | 24 ft | 1 kts | 122° |
| 2026-04-26 19:24 | 55.62494 | 12.64285 | 25 ft | 9 kts | 127° |
| 2026-04-26 19:24 | 55.62387 | 12.64540 | 24 ft | 16 kts | 123° |
| 2026-04-26 19:25 | 55.62328 | 12.64697 | 24 ft | 10 kts | 123° |
| 2026-04-26 19:25 | 55.62301 | 12.64766 | 24 ft | 11 kts | 130° |
| 2026-04-26 19:25 | 55.62194 | 12.64748 | 24 ft | 15 kts | 214° |
| 2026-04-26 19:25 | 55.62098 | 12.64640 | 26 ft | 18 kts | 213° |
| 2026-04-26 19:26 | 55.61977 | 12.64515 | 24 ft | 21 kts | 198° |
| 2026-04-26 19:26 | 55.61822 | 12.64534 | 24 ft | 24 kts | 170° |
| 2026-04-26 19:26 | 55.61679 | 12.64560 | 24 ft | 17 kts | 197° |
| 2026-04-26 19:26 | 55.61569 | 12.64441 | 25 ft | 20 kts | 213° |
| 2026-04-26 19:27 | 55.61442 | 12.64296 | 25 ft | 23 kts | 213° |
| 2026-04-26 19:27 | 55.61298 | 12.64130 | 25 ft | 26 kts | 213° |
| 2026-04-26 19:27 | 55.61139 | 12.63947 | 24 ft | 29 kts | 213° |
| 2026-04-26 19:27 | 55.60966 | 12.63748 | 24 ft | 30 kts | 213° |
| 2026-04-26 19:28 | 55.60840 | 12.63604 | 26 ft | 10 kts | 213° |
| 2026-04-26 19:28 | 55.60777 | 12.63620 | 24 ft | 12 kts | 135° |
| 2026-04-26 19:28 | 55.60738 | 12.63698 | 24 ft | 0 kts | 132° |
| 2026-04-26 19:29 | 55.60731 | 12.63712 | 24 ft | 5 kts | 132° |
| 2026-04-26 19:29 | 55.60693 | 12.63795 | 26 ft | 11 kts | 123° |
| 2026-04-26 19:29 | 55.60710 | 12.63919 | 27 ft | 15 kts | 43° |
| 2026-04-26 19:29 | 55.60886 | 12.64192 | 25 ft | 67 kts | 41° |
| 2026-04-26 19:30 | 55.61417 | 12.65013 | 28 ft | 130 kts | 41° |
| 2026-04-26 19:30 | 55.62201 | 12.66220 | 167 ft | 162 kts | 41° |
| 2026-04-26 19:30 | 55.63042 | 12.67517 | 826 ft | 161 kts | 40° |
| 2026-04-26 19:30 | 55.63612 | 12.68411 | 1258 ft | 163 kts | 39° |
| 2026-04-26 19:31 | 55.64739 | 12.70173 | 2084 ft | 163 kts | 39° |
| 2026-04-26 19:31 | 55.65693 | 12.71192 | 2623 ft | 161 kts | 6° |
| 2026-04-26 19:31 | 55.66766 | 12.70975 | 3172 ft | 156 kts | 332° |
| 2026-04-26 19:31 | 55.67856 | 12.70275 | 3474 ft | 181 kts | 348° |
| 2026-04-26 19:32 | 55.69177 | 12.70123 | 3845 ft | 200 kts | 352° |
| 2026-04-26 19:32 | 55.70644 | 12.69915 | 4148 ft | 225 kts | 352° |
| 2026-04-26 19:32 | 55.72289 | 12.69698 | 4649 ft | 248 kts | 353° |
| 2026-04-26 19:32 | 55.74042 | 12.69494 | 5536 ft | 253 kts | 353° |
| 2026-04-26 19:33 | 55.75811 | 12.69296 | 6544 ft | 256 kts | 353° |
| 2026-04-26 19:33 | 55.77598 | 12.69108 | 7486 ft | 258 kts | 353° |
| 2026-04-26 19:33 | 55.79393 | 12.68914 | 8424 ft | 259 kts | 351° |
| 2026-04-26 19:33 | 55.81122 | 12.68101 | 9349 ft | 257 kts | 333° |
| 2026-04-26 19:34 | 55.82581 | 12.66273 | 10258 ft | 259 kts | 314° |
| 2026-04-26 19:34 | 55.83620 | 12.63654 | 10817 ft | 275 kts | 297° |
| 2026-04-26 19:34 | 55.84375 | 12.60365 | 11050 ft | 299 kts | 294° |
| 2026-04-26 19:34 | 55.85158 | 12.56822 | 11467 ft | 314 kts | 294° |
| 2026-04-26 19:35 | 55.85959 | 12.53171 | 12164 ft | 318 kts | 294° |
| 2026-04-26 19:35 | 55.86763 | 12.49481 | 12906 ft | 321 kts | 294° |
| 2026-04-26 19:35 | 55.87577 | 12.45758 | 13686 ft | 324 kts | 294° |
| 2026-04-26 19:35 | 55.88401 | 12.42010 | 14401 ft | 327 kts | 294° |
| 2026-04-26 19:36 | 55.89405 | 12.38379 | 15049 ft | 328 kts | 304° |
| 2026-04-26 19:36 | 55.90330 | 12.36254 | 15471 ft | 329 kts | 313° |
| 2026-04-26 19:36 | 55.92758 | 12.32898 | 16308 ft | 335 kts | 330° |
| 2026-04-26 19:36 | 55.94921 | 12.31421 | 16931 ft | 341 kts | 342° |
| 2026-04-26 19:37 | 55.97266 | 12.30347 | 17609 ft | 344 kts | 342° |
| 2026-04-26 19:37 | 55.99598 | 12.29271 | 18267 ft | 348 kts | 342° |
| 2026-04-26 19:37 | 56.01950 | 12.28177 | 18627 ft | 350 kts | 342° |
| 2026-04-26 19:37 | 56.04310 | 12.27078 | 18859 ft | 351 kts | 342° |
| 2026-04-26 19:38 | 56.06672 | 12.25976 | 19104 ft | 352 kts | 342° |
| 2026-04-26 19:38 | 56.09011 | 12.24883 | 19237 ft | 353 kts | 342° |
| 2026-04-26 19:38 | 56.11407 | 12.23892 | 19266 ft | 355 kts | 347° |
| 2026-04-26 19:38 | 56.13852 | 12.23221 | 19279 ft | 355 kts | 347° |
| 2026-04-26 19:39 | 56.16332 | 12.22546 | 19375 ft | 359 kts | 347° |
| 2026-04-26 19:39 | 56.18774 | 12.21882 | 20029 ft | 360 kts | 347° |
| 2026-04-26 19:39 | 56.21255 | 12.21204 | 20684 ft | 362 kts | 347° |
| 2026-04-26 19:39 | 56.23754 | 12.20517 | 21295 ft | 365 kts | 347° |
| 2026-04-26 19:40 | 56.26276 | 12.19820 | 21916 ft | 367 kts | 347° |
| 2026-04-26 19:40 | 56.28810 | 12.19118 | 22469 ft | 370 kts | 347° |
| 2026-04-26 19:40 | 56.31359 | 12.18417 | 23027 ft | 371 kts | 347° |
| 2026-04-26 19:40 | 56.33917 | 12.17715 | 23486 ft | 374 kts | 347° |
| 2026-04-26 19:41 | 56.36494 | 12.17003 | 23753 ft | 375 kts | 347° |
| 2026-04-26 19:41 | 56.39074 | 12.16290 | 23995 ft | 376 kts | 347° |
| 2026-04-26 19:41 | 56.41669 | 12.15567 | 24189 ft | 379 kts | 347° |
| 2026-04-26 19:41 | 56.43393 | 12.15083 | 24237 ft | 379 kts | 347° |
| 2026-04-26 19:42 | 56.46848 | 12.14121 | 24286 ft | 366 kts | 347° |
| 2026-04-26 19:42 | 56.49320 | 12.13442 | 24172 ft | 353 kts | 347° |
| 2026-04-26 19:42 | 56.51687 | 12.12798 | 23915 ft | 336 kts | 347° |
| 2026-04-26 19:42 | 56.53964 | 12.12173 | 23249 ft | 327 kts | 347° |
| 2026-04-26 19:43 | 56.56192 | 12.11546 | 22450 ft | 322 kts | 346° |
| 2026-04-26 19:43 | 56.58393 | 12.10921 | 21646 ft | 318 kts | 347° |
| 2026-04-26 19:43 | 56.60562 | 12.10305 | 20874 ft | 314 kts | 347° |
| 2026-04-26 19:43 | 56.62717 | 12.09696 | 20326 ft | 312 kts | 347° |
| 2026-04-26 19:44 | 56.64862 | 12.09095 | 19902 ft | 311 kts | 347° |
| 2026-04-26 19:44 | 56.66998 | 12.08497 | 19481 ft | 310 kts | 347° |
| 2026-04-26 19:44 | 56.69100 | 12.07909 | 19062 ft | 309 kts | 347° |
| 2026-04-26 19:44 | 56.71224 | 12.07312 | 18623 ft | 308 kts | 347° |
| 2026-04-26 19:45 | 56.73338 | 12.06717 | 18158 ft | 307 kts | 347° |
| 2026-04-26 19:45 | 56.75441 | 12.06123 | 17728 ft | 304 kts | 347° |
| 2026-04-26 19:45 | 56.77526 | 12.05534 | 17310 ft | 302 kts | 347° |
| 2026-04-26 19:45 | 56.79593 | 12.04947 | 16896 ft | 299 kts | 347° |
| 2026-04-26 19:46 | 56.81647 | 12.04360 | 16479 ft | 298 kts | 347° |
| 2026-04-26 19:46 | 56.83691 | 12.03775 | 16057 ft | 296 kts | 347° |
| 2026-04-26 19:46 | 56.85722 | 12.03196 | 15642 ft | 295 kts | 347° |
| 2026-04-26 19:46 | 56.87741 | 12.02623 | 15239 ft | 293 kts | 347° |
| 2026-04-26 19:47 | 56.89754 | 12.02051 | 14839 ft | 292 kts | 347° |
| 2026-04-26 19:47 | 56.91078 | 12.01671 | 14570 ft | 291 kts | 347° |
| 2026-04-26 19:47 | 56.93746 | 12.00904 | 14028 ft | 289 kts | 347° |
| 2026-04-26 19:47 | 56.95727 | 12.00339 | 13598 ft | 288 kts | 348° |
| 2026-04-26 19:48 | 56.97703 | 11.99778 | 13199 ft | 285 kts | 348° |
| 2026-04-26 19:48 | 56.99654 | 11.99223 | 12810 ft | 283 kts | 348° |
| 2026-04-26 19:48 | 57.01594 | 11.98670 | 12418 ft | 281 kts | 348° |
| 2026-04-26 19:48 | 57.03524 | 11.98145 | 12038 ft | 280 kts | 351° |
| 2026-04-26 19:49 | 57.05477 | 11.98220 | 11655 ft | 283 kts | 3° |
| 2026-04-26 19:49 | 57.07424 | 11.98704 | 11265 ft | 282 kts | 4° |
| 2026-04-26 19:49 | 57.09340 | 11.99184 | 10893 ft | 281 kts | 4° |
| 2026-04-26 19:49 | 57.11280 | 11.99668 | 10496 ft | 281 kts | 4° |
| 2026-04-26 19:50 | 57.13212 | 12.00150 | 10184 ft | 277 kts | 4° |
| 2026-04-26 19:50 | 57.15089 | 12.00621 | 10011 ft | 269 kts | 4° |
| 2026-04-26 19:50 | 57.16927 | 12.01081 | 9702 ft | 265 kts | 4° |
| 2026-04-26 19:50 | 57.18750 | 12.01536 | 9346 ft | 263 kts | 4° |
| 2026-04-26 19:51 | 57.20561 | 12.01984 | 8992 ft | 262 kts | 4° |
| 2026-04-26 19:51 | 57.22366 | 12.02432 | 8636 ft | 261 kts | 5° |
| 2026-04-26 19:51 | 57.24160 | 12.02875 | 8288 ft | 260 kts | 4° |
| 2026-04-26 19:51 | 57.25929 | 12.02645 | 7950 ft | 254 kts | 339° |
| 2026-04-26 19:52 | 57.27377 | 12.00871 | 7635 ft | 252 kts | 312° |
| 2026-04-26 19:52 | 57.28430 | 11.98263 | 7406 ft | 255 kts | 306° |
| 2026-04-26 19:52 | 57.29538 | 11.95709 | 7136 ft | 255 kts | 321° |
| 2026-04-26 19:52 | 57.31118 | 11.94315 | 6761 ft | 255 kts | 350° |
| 2026-04-26 19:53 | 57.32881 | 11.94504 | 6385 ft | 257 kts | 12° |
| 2026-04-26 19:53 | 57.34607 | 11.95373 | 6005 ft | 258 kts | 15° |
| 2026-04-26 19:53 | 57.36319 | 11.96349 | 5670 ft | 257 kts | 21° |
| 2026-04-26 19:53 | 57.37772 | 11.98224 | 5394 ft | 256 kts | 42° |
| 2026-04-26 19:54 | 57.38998 | 12.00574 | 5191 ft | 250 kts | 45° |
| 2026-04-26 19:54 | 57.40166 | 12.02907 | 5034 ft | 243 kts | 45° |
| 2026-04-26 19:54 | 57.41297 | 12.05157 | 4897 ft | 233 kts | 39° |
| 2026-04-26 19:54 | 57.42628 | 12.06704 | 4763 ft | 221 kts | 24° |
| 2026-04-26 19:55 | 57.43996 | 12.07885 | 4622 ft | 213 kts | 22° |
| 2026-04-26 19:55 | 57.45305 | 12.09033 | 4532 ft | 203 kts | 24° |
| 2026-04-26 19:55 | 57.46544 | 12.10142 | 4438 ft | 193 kts | 23° |
| 2026-04-26 19:55 | 57.47715 | 12.11186 | 4333 ft | 181 kts | 24° |
| 2026-04-26 19:56 | 57.48817 | 12.12176 | 4134 ft | 178 kts | 24° |
| 2026-04-26 19:56 | 57.49930 | 12.13179 | 3902 ft | 177 kts | 24° |
| 2026-04-26 19:56 | 57.51038 | 12.14171 | 3655 ft | 176 kts | 24° |
| 2026-04-26 19:56 | 57.52123 | 12.15153 | 3431 ft | 172 kts | 24° |
| 2026-04-26 19:57 | 57.53191 | 12.16113 | 3175 ft | 170 kts | 24° |
| 2026-04-26 19:57 | 57.54243 | 12.17076 | 2946 ft | 167 kts | 24° |
| 2026-04-26 19:57 | 57.55277 | 12.18021 | 2712 ft | 164 kts | 23° |
| 2026-04-26 19:57 | 57.56301 | 12.18935 | 2492 ft | 162 kts | 23° |
| 2026-04-26 19:58 | 57.57307 | 12.19839 | 2276 ft | 159 kts | 22° |
| 2026-04-26 19:58 | 57.58300 | 12.20734 | 2048 ft | 157 kts | 22° |
| 2026-04-26 19:58 | 57.59285 | 12.21621 | 1837 ft | 157 kts | 22° |
| 2026-04-26 19:58 | 57.60237 | 12.22487 | 1607 ft | 147 kts | 23° |
| 2026-04-26 19:59 | 57.61132 | 12.23300 | 1391 ft | 140 kts | 23° |
| 2026-04-26 19:59 | 57.61992 | 12.24089 | 1182 ft | 139 kts | 24° |
| 2026-04-26 19:59 | 57.62870 | 12.24888 | 988 ft | 138 kts | 24° |
| 2026-04-26 19:59 | 57.63737 | 12.25668 | 805 ft | 138 kts | 24° |
| 2026-04-26 20:00 | 57.64604 | 12.26454 | 625 ft | 139 kts | 24° |
| 2026-04-26 20:00 | 57.65448 | 12.27220 | 501 ft | 128 kts | 26° |
| 2026-04-26 20:00 | 57.66110 | 12.27824 | 508 ft | 83 kts | 26° |
| 2026-04-26 20:00 | 57.66524 | 12.28199 | 512 ft | 42 kts | 25° |
| 2026-04-26 20:01 | 57.66668 | 12.28449 | 512 ft | 27 kts | 54° |
| 2026-04-26 20:01 | 57.66767 | 12.28716 | 513 ft | 16 kts | 56° |
| 2026-04-26 20:01 | 57.66780 | 12.28752 | 513 ft | 0 kts | 55° |
| 2026-04-26 20:02 | 57.66783 | 12.28761 | 513 ft | 5 kts | 54° |
| 2026-04-26 20:02 | 57.66844 | 12.28837 | 513 ft | 13 kts | 25° |
| 2026-04-26 20:02 | 57.66873 | 12.28862 | 513 ft | 14 kts | 25° |
| 2026-04-26 20:03 | 57.67023 | 12.29000 | 514 ft | 10 kts | 27° |
| 2026-04-26 20:03 | 57.67030 | 12.29121 | 516 ft | 10 kts | 114° |
| 2026-04-26 20:03 | 57.66995 | 12.29259 | 516 ft | 13 kts | 116° |
| 2026-04-26 20:03 | 57.66954 | 12.29325 | 516 ft | 9 kts | 190° |
| 2026-04-26 20:04 | 57.66891 | 12.29272 | 516 ft | 7 kts | 205° |
| 2026-04-26 20:04 | 57.66863 | 12.29316 | 516 ft | 7 kts | 115° |
| 2026-04-26 20:04 | 57.66851 | 12.29364 | 516 ft | 2 kts | 116° |
| 2026-04-26 20:04 | 57.66848 | 12.29375 | 516 ft | 0 kts | 116° |